Flight Track Log - Related Links

Times and Time Zones

All times are in EST time to prevent confusion due to time zone crossing. See the EJA396 flight status page for this flight to view local times or setup timezone preferences in your user account.

Time Position Orientation Groundspeed Altitude Reporting Facility
EST Latitude Longitude Course Direction KTS MPH feet Rate Location/Type
Thu 01:04:26 PM 36.6500 -121.8667 15° North 214 246 3,900  Level Northern Cal TRACON
Thu 01:05:26 PM 36.6500 -121.7833 90° East 232 267 5,900 2,800 Climbing Northern Cal TRACON
Thu 01:06:26 PM 36.6667 -121.7000 76° East 294 338 9,500 3,641 Climbing Northern Cal TRACON
Thu 01:07:23 PM 36.6636 -121.6075 92° East 275 316 13,000 3,407 Climbing Oakland Center
Thu 01:08:24 PM 36.6700 -121.5006 86° East 300 345 16,200 3,024 Climbing Oakland Center
Thu 01:09:26 PM 36.6775 -121.3786 86° East 338 389 19,200 3,024 Climbing Oakland Center
Thu 01:10:27 PM 36.6864 -121.2550 85° East 355 409 22,400 3,148 Climbing Oakland Center
Thu 01:11:28 PM 36.6947 -121.1283 85° East 364 419 25,600 3,122 Climbing Oakland Center
Thu 01:12:30 PM 36.7022 -121.0047 86° East 361 415 28,800 2,537 Climbing Oakland Center
Thu 01:13:31 PM 36.7097 -120.8803 86° East 361 415 30,800 1,082 Climbing Oakland Center
Thu 01:14:32 PM 36.7336 -120.7175 80° East 404 465 31,000 98 Climbing Oakland Center
Thu 01:15:34 PM 36.7731 -120.5794 70° East 419 482 31,000  Level Oakland Center
Thu 01:16:35 PM 36.8125 -120.4400 71° East 424 488 31,000  Level Oakland Center
Thu 01:17:36 PM 36.8475 -120.3178 70° East 421 484 31,000  Level Oakland Center
Thu 01:18:38 PM 36.8853 -120.1819 71° East 417 480 31,000  Level Oakland Center
Thu 01:19:39 PM 36.9281 -120.0261 71° East 425 489 31,000  Level Oakland Center
Thu 01:20:41 PM 36.9664 -119.8903 71° East 420 483 31,000  Level Oakland Center
Thu 01:21:42 PM 37.0039 -119.7539 71° East 417 480 31,000  Level Oakland Center
Thu 01:22:43 PM 37.0394 -119.6253 71° East 403 464 31,000  Level Oakland Center
Thu 01:23:45 PM 37.0739 -119.4992 71° East 389 448 31,000  Level Oakland Center
Thu 01:24:46 PM 37.1167 -119.3447 71° East 391 450 31,000  Level Oakland Center
Thu 01:25:48 PM 37.1536 -119.2122 71° East 400 460 31,000  Level Oakland Center
Thu 01:26:49 PM 37.1653 -119.0778 84° East 397 457 31,000  Level Oakland Center
Thu 01:27:50 PM 37.1456 -118.9406 100° East 401 461 31,000  Level Oakland Center
Thu 01:28:52 PM 37.1258 -118.8047 100° East 397 457 31,000  Level Oakland Center
Thu 01:29:53 PM 37.1064 -118.6689 100° East 397 457 31,000  Level Oakland Center
Thu 01:31:01 PM 37.0858 -118.5219 100° East 395 455 31,000  Level Los Angeles Center
Thu 01:32:03 PM 37.0617 -118.3611 101° East 394 453 31,000  Level Los Angeles Center
Thu 01:33:05 PM 37.0408 -118.2244 101° East 396 456 31,000  Level Los Angeles Center
Thu 01:33:59 PM 37.0211 -118.1131 102° East 398 458 31,000  Level Oakland Center
Thu 01:35:01 PM 37.0006 -117.9783 101° East 396 456 31,000  Level Oakland Center
Thu 01:36:02 PM 36.9792 -117.8453 101° East 391 450 31,000  Level Oakland Center
Thu 01:37:03 PM 36.9539 -117.6875 101° East 388 447 31,000  Level Oakland Center
Thu 01:38:05 PM 36.9342 -117.5589 101° East 381 438 31,000  Level Oakland Center
Thu 01:39:06 PM 36.9133 -117.4297 101° East 380 437 31,000  Level Oakland Center
Thu 01:40:08 PM 36.8742 -117.3067 112° Southeast 383 441 31,000  Level Oakland Center
Thu 01:41:09 PM 36.8261 -117.1842 116° Southeast 389 448 31,000  Level Oakland Center
Thu 01:42:11 PM 36.7778 -117.0600 116° Southeast 395 455 31,000 -49 Level Oakland Center
Thu 01:43:12 PM 36.7289 -116.9361 116° Southeast 398 458 30,900 -634 Descending Oakland Center
Thu 01:44:14 PM 36.6792 -116.8117 116° Southeast 400 460 29,700 -1,220 Descending Oakland Center
Thu 01:45:15 PM 36.6214 -116.6642 116° Southeast 397 457 28,400 -1,024 Descending Oakland Center
Thu 01:46:17 PM 36.5739 -116.5458 117° Southeast 391 450 27,600 -878 Descending Oakland Center
Thu 01:47:18 PM 36.5267 -116.4331 117° Southeast 381 438 26,600 -1,714 Descending Oakland Center
Thu 01:48:37 PM 36.4661 -116.2781 116° Southeast 372 428 23,600 -2,451 Descending Los Angeles Center
Thu 01:49:40 PM 36.4011 -116.1797 129° Southeast 373 429 20,800 -2,400 Descending Los Angeles Center
Thu 01:50:42 PM 36.3292 -116.0783 131° Southeast 366 421 18,600 -1,922 Descending Los Angeles Center
Thu 01:51:23 PM 36.2847 -116.0158 131° Southeast 360 414 17,500 -1,645 Descending Los Angeles Center
Thu 01:51:44 PM 36.2644 -115.9872 131° Southeast 356 410 16,900 -1,343 Descending Los Angeles Center
Thu 01:52:30 PM 36.2153 -115.9208 133° Southeast 349 402 16,000 -871 Descending Los Angeles Center
Thu 01:52:46 PM 36.1969 -115.8928 129° Southeast 342 394 16,000  Level Los Angeles Center
Thu 01:53:48 PM 36.1631 -115.8008 115° Southeast 296 341 16,000  Level Los Angeles Center
Thu 01:54:50 PM 36.1278 -115.7117 116° Southeast 272 313 16,000 -382 Level Los Angeles Center
Thu 01:55:38 PM 36.1033 -115.6458 115° Southeast 268 308 15,300 -730 Descending Los Angeles Center
Thu 01:56:04 PM 36.0969 -115.6286 115° Southeast 269 310 15,100 -984 Descending Los Angeles Center
Thu 01:56:39 PM 36.0706 -115.5636 117° Southeast 257 296 14,300 -1,031 Descending Los Angeles Center
Thu 01:57:08 PM 36.0606 -115.5344 113° Southeast 248 285 14,000 -358 Descending Los Angeles Center
Thu 01:57:46 PM 36.0406 -115.4831 116° Southeast 246 283 13,900 -492 Descending Los Angeles Center
Thu 01:58:09 PM 36.0344 -115.4478 102° East 255 293 13,500 -984 Descending Los Angeles Center
Thu 01:58:47 PM 36.0328 -115.3978 92° East 246 283 12,900 -968 Descending Los Angeles Center
Thu 01:59:11 PM 36.0306 -115.3658 95° East 239 275 12,500 -980 Descending Los Angeles Center
Thu 01:59:36 PM 36.0275 -115.3331 97° East 226 260 12,100 -484 Descending Los Angeles Center
Thu 02:00:13 PM 36.0244 -115.2842 94° East 225 259 12,000 -109 Descending Los Angeles Center
Thu 02:00:31 PM 36.0231 -115.2628 95° East 219 252 12,000 -1,429 Level Los Angeles Center
Thu 02:01:16 PM 36.0203 -115.2122 94° East 196 226 10,500 -1,701 Descending Los Angeles Center
Thu 02:01:38 PM 36.0181 -115.1900 97° East 203 234 10,100 -1,065 Descending Los Angeles Center
Thu 02:02:18 PM 36.0056 -115.1528 113° Southeast 193 222 9,400 -1,100 Descending Los Angeles Center
Thu 02:02:38 PM 35.9853 -115.1583 192° South 180 207 9,000 -1,645 Descending Los Angeles Center
Thu 02:03:20 PM 35.9536 -115.1736 201° Southwest 184 212 7,700 -1,869 Descending Los Angeles Center
Thu 02:03:39 PM 35.9367 -115.1822 202° Southwest 201 231 7,100 -1,645 Descending Los Angeles Center
Thu 02:04:22 PM 35.9075 -115.2128 220° Southwest 218 251 6,000 -1,082 Descending Los Angeles Center
Thu 02:04:40 PM 35.9108 -115.2331 281° West 194 223 6,000  Level Los Angeles Center
Thu 02:05:25 PM 35.9378 -115.2542 328° Northwest 183 211 6,000  Level Los Angeles Center
Thu 02:05:41 PM 35.9517 -115.2517 North 172 198 6,000 -677 Level Los Angeles Center
Thu 02:06:27 PM 35.9850 -115.2297 28° Northeast 174 200 5,300 -984 Descending Los Angeles Center
Thu 02:06:42 PM 35.9933 -115.2247 26° Northeast 175 201 5,000 -1,065 Descending Los Angeles Center
Thu 02:07:29 PM 36.0153 -115.2064 34° Northeast 124 143 4,200 -1,091 Descending Los Angeles Center
Thu 02:07:37 PM 36.0194 -115.2056 North 126 145 4,000 -1,065 Descending Los Angeles Center
Thu 02:08:31 PM 36.0428 -115.1883 31° Northeast 103 119 3,100 -1,000 Descending Los Angeles Center
Thu 02:08:43 PM 36.0475 -115.1856 25° Northeast 103 119 2,900 -677 Descending Los Angeles Center
Thu 02:09:33 PM 36.0689 -115.1725 26° Northeast 105 121 2,400 -600 Descending Los Angeles Center
Thu 02:11:00 PM 36.0801 -115.1523 111° Southeast  Level Estimated
Thu 02:18:00 PM 36.0801 -115.1523 282° West  Level Estimated

Login

Don't have an account? Register now (free) for customized features, flight alerts, and more!